sensor_id;sensor_type;location;lat;lon;timestamp;pressure;altitude;pressure_sealevel;temperature;humidity
79150;BME280;68563;45.644;13.782;2024-02-21T00:01:47;101975.66;;;12.36;49.87
79150;BME280;68563;45.644;13.782;2024-02-21T00:04:12;101975.63;;;12.39;49.54
79150;BME280;68563;45.644;13.782;2024-02-21T00:06:37;101966.13;;;12.33;49.84
79150;BME280;68563;45.644;13.782;2024-02-21T00:09:03;101971.34;;;12.39;49.79
79150;BME280;68563;45.644;13.782;2024-02-21T00:11:28;101973.91;;;12.41;49.53
79150;BME280;68563;45.644;13.782;2024-02-21T00:13:54;101974.81;;;12.41;49.33
79150;BME280;68563;45.644;13.782;2024-02-21T00:16:20;101969.63;;;12.41;49.84
79150;BME280;68563;45.644;13.782;2024-02-21T00:18:45;101975.66;;;12.42;50.05
79150;BME280;68563;45.644;13.782;2024-02-21T00:21:11;101972.19;;;12.43;49.91
79150;BME280;68563;45.644;13.782;2024-02-21T00:23:43;101979.13;;;12.44;49.66
79150;BME280;68563;45.644;13.782;2024-02-21T00:26:08;101974.81;;;12.41;49.90
79150;BME280;68563;45.644;13.782;2024-02-21T00:28:34;101970.44;;;12.39;49.95
79150;BME280;68563;45.644;13.782;2024-02-21T00:30:59;101957.47;;;12.40;50.14
79150;BME280;68563;45.644;13.782;2024-02-21T00:33:24;101958.34;;;12.38;49.96
79150;BME280;68563;45.644;13.782;2024-02-21T00:35:50;101965.28;;;12.40;49.74
79150;BME280;68563;45.644;13.782;2024-02-21T00:38:15;101965.25;;;12.36;49.47
79150;BME280;68563;45.644;13.782;2024-02-21T00:40:41;101964.38;;;12.34;49.75
79150;BME280;68563;45.644;13.782;2024-02-21T00:43:07;101960.91;;;12.36;49.88
79150;BME280;68563;45.644;13.782;2024-02-21T00:45:32;101954.84;;;12.33;49.94
79150;BME280;68563;45.644;13.782;2024-02-21T00:47:58;101959.19;;;12.35;50.42
79150;BME280;68563;45.644;13.782;2024-02-21T00:50:23;101954.00;;;12.32;49.66
79150;BME280;68563;45.644;13.782;2024-02-21T00:52:49;101948.81;;;12.32;50.02
79150;BME280;68563;45.644;13.782;2024-02-21T00:55:14;101951.41;;;12.27;50.07
79150;BME280;68563;45.644;13.782;2024-02-21T00:57:40;101945.34;;;12.27;49.92
79150;BME280;68563;45.644;13.782;2024-02-21T01:00:05;101947.94;;;12.28;49.85
79150;BME280;68563;45.644;13.782;2024-02-21T01:02:32;101944.47;;;12.31;49.85
79150;BME280;68563;45.644;13.782;2024-02-21T01:04:57;101939.28;;;12.29;49.75
79150;BME280;68563;45.644;13.782;2024-02-21T01:07:23;101932.34;;;12.25;49.98
79150;BME280;68563;45.644;13.782;2024-02-21T01:09:49;101935.81;;;12.24;49.95
79150;BME280;68563;45.644;13.782;2024-02-21T01:12:16;101931.47;;;12.22;49.77
79150;BME280;68563;45.644;13.782;2024-02-21T01:14:41;101928.88;;;12.22;49.92
79150;BME280;68563;45.644;13.782;2024-02-21T01:17:07;101940.13;;;12.19;50.41
79150;BME280;68563;45.644;13.782;2024-02-21T01:19:32;101930.59;;;12.12;50.49
79150;BME280;68563;45.644;13.782;2024-02-21T01:21:58;101930.63;;;12.15;50.66
79150;BME280;68563;45.644;13.782;2024-02-21T01:24:23;101928.03;;;12.13;50.56
79150;BME280;68563;45.644;13.782;2024-02-21T01:26:49;101925.44;;;12.09;51.34
79150;BME280;68563;45.644;13.782;2024-02-21T01:29:15;101923.66;;;12.05;51.23
79150;BME280;68563;45.644;13.782;2024-02-21T01:31:40;101922.81;;;12.06;51.58
79150;BME280;68563;45.644;13.782;2024-02-21T01:34:06;101919.34;;;12.02;51.88
79150;BME280;68563;45.644;13.782;2024-02-21T01:36:31;101921.09;;;12.02;51.79
79150;BME280;68563;45.644;13.782;2024-02-21T01:38:56;101922.81;;;12.01;51.84
79150;BME280;68563;45.644;13.782;2024-02-21T01:41:22;101916.72;;;11.94;52.07
79150;BME280;68563;45.644;13.782;2024-02-21T01:43:47;101910.66;;;11.94;52.17
79150;BME280;68563;45.644;13.782;2024-02-21T01:46:13;101914.13;;;11.90;52.39
79150;BME280;68563;45.644;13.782;2024-02-21T01:48:38;101918.41;;;11.83;52.40
79150;BME280;68563;45.644;13.782;2024-02-21T01:51:04;101909.75;;;11.78;52.34
79150;BME280;68563;45.644;13.782;2024-02-21T01:53:36;101916.69;;;11.85;52.45
79150;BME280;68563;45.644;13.782;2024-02-21T01:56:03;101914.09;;;11.82;51.85
79150;BME280;68563;45.644;13.782;2024-02-21T01:58:30;101907.16;;;11.79;50.55
79150;BME280;68563;45.644;13.782;2024-02-21T02:00:59;101915.81;;;11.83;51.30
79150;BME280;68563;45.644;13.782;2024-02-21T02:03:24;101914.97;;;11.84;50.85
79150;BME280;68563;45.644;13.782;2024-02-21T02:05:51;101908.03;;;11.86;50.88
79150;BME280;68563;45.644;13.782;2024-02-21T02:08:18;101907.19;;;11.82;51.03
79150;BME280;68563;45.644;13.782;2024-02-21T02:10:44;101901.13;;;11.84;50.95
79150;BME280;68563;45.644;13.782;2024-02-21T02:13:11;101893.31;;;11.74;50.47
79150;BME280;68563;45.644;13.782;2024-02-21T02:18:05;101901.09;;;11.76;51.01
79150;BME280;68563;45.644;13.782;2024-02-21T02:20:30;101892.47;;;11.74;50.56
79150;BME280;68563;45.644;13.782;2024-02-21T02:22:57;101895.91;;;11.74;49.63
79150;BME280;68563;45.644;13.782;2024-02-21T02:25:23;101896.78;;;11.76;49.32
79150;BME280;68563;45.644;13.782;2024-02-21T02:27:48;101893.31;;;11.76;50.04
79150;BME280;68563;45.644;13.782;2024-02-21T02:30:14;101890.72;;;11.76;50.14
79150;BME280;68563;45.644;13.782;2024-02-21T02:32:39;101895.03;;;11.72;50.30
79150;BME280;68563;45.644;13.782;2024-02-21T02:35:08;101891.56;;;11.73;49.91
79150;BME280;68563;45.644;13.782;2024-02-21T02:37:33;101898.50;;;11.73;49.73
79150;BME280;68563;45.644;13.782;2024-02-21T02:39:59;101895.91;;;11.73;49.17
79150;BME280;68563;45.644;13.782;2024-02-21T02:42:24;101896.78;;;11.78;49.06
79150;BME280;68563;45.644;13.782;2024-02-21T02:44:49;101892.47;;;11.83;47.65
79150;BME280;68563;45.644;13.782;2024-02-21T02:47:15;101891.63;;;11.87;47.42
79150;BME280;68563;45.644;13.782;2024-02-21T02:49:40;101891.59;;;11.84;47.23
79150;BME280;68563;45.644;13.782;2024-02-21T02:52:05;101895.91;;;11.87;47.10
79150;BME280;68563;45.644;13.782;2024-02-21T02:54:31;101894.22;;;11.87;47.04
79150;BME280;68563;45.644;13.782;2024-02-21T02:56:56;101895.94;;;11.85;47.52
79150;BME280;68563;45.644;13.782;2024-02-21T02:59:21;101893.31;;;11.87;47.18
79150;BME280;68563;45.644;13.782;2024-02-21T03:01:47;101888.16;;;11.85;47.52
79150;BME280;68563;45.644;13.782;2024-02-21T03:04:12;101896.81;;;11.87;47.44
79150;BME280;68563;45.644;13.782;2024-02-21T03:06:38;101903.72;;;11.87;47.23
79150;BME280;68563;45.644;13.782;2024-02-21T03:09:03;101906.31;;;11.87;47.11
79150;BME280;68563;45.644;13.782;2024-02-21T03:11:33;101905.44;;;11.81;47.10
79150;BME280;68563;45.644;13.782;2024-02-21T03:13:59;101904.56;;;11.82;47.32
79150;BME280;68563;45.644;13.782;2024-02-21T03:16:24;101909.75;;;11.84;47.60
79150;BME280;68563;45.644;13.782;2024-02-21T03:18:50;101907.19;;;11.82;47.81
79150;BME280;68563;45.644;13.782;2024-02-21T03:21:15;101907.19;;;11.81;47.39
79150;BME280;68563;45.644;13.782;2024-02-21T03:23:40;101908.91;;;11.80;47.58
79150;BME280;68563;45.644;13.782;2024-02-21T03:26:07;101897.66;;;11.75;47.48
79150;BME280;68563;45.644;13.782;2024-02-21T03:28:32;101906.28;;;11.76;48.16
79150;BME280;68563;45.644;13.782;2024-02-21T03:30:58;101897.63;;;11.71;48.41
79150;BME280;68563;45.644;13.782;2024-02-21T03:33:23;101912.34;;;11.70;48.81
79150;BME280;68563;45.644;13.782;2024-02-21T03:35:48;101907.16;;;11.70;48.57
79150;BME280;68563;45.644;13.782;2024-02-21T03:38:14;101903.69;;;11.68;48.32
79150;BME280;68563;45.644;13.782;2024-02-21T03:40:39;101903.69;;;11.71;47.80
79150;BME280;68563;45.644;13.782;2024-02-21T03:43:05;101901.09;;;11.74;48.10
79150;BME280;68563;45.644;13.782;2024-02-21T03:45:30;101898.50;;;11.74;47.53
79150;BME280;68563;45.644;13.782;2024-02-21T03:47:55;101898.50;;;11.73;48.17
79150;BME280;68563;45.644;13.782;2024-02-21T03:50:21;101901.09;;;11.73;48.42
79150;BME280;68563;45.644;13.782;2024-02-21T03:52:46;101904.53;;;11.69;48.56
79150;BME280;68563;45.644;13.782;2024-02-21T03:55:12;101906.28;;;11.70;48.78
79150;BME280;68563;45.644;13.782;2024-02-21T03:57:37;101903.66;;;11.65;48.51
79150;BME280;68563;45.644;13.782;2024-02-21T04:00:04;101900.22;;;11.63;47.96
79150;BME280;68563;45.644;13.782;2024-02-21T04:02:30;101897.63;;;11.61;48.11
79150;BME280;68563;45.644;13.782;2024-02-21T04:04:56;101900.22;;;11.63;48.68
79150;BME280;68563;45.644;13.782;2024-02-21T04:07:21;101895.03;;;11.63;48.22
79150;BME280;68563;45.644;13.782;2024-02-21T04:09:47;101886.38;;;11.61;48.37
79150;BME280;68563;45.644;13.782;2024-02-21T04:12:12;101886.38;;;11.65;48.23
79150;BME280;68563;45.644;13.782;2024-02-21T04:14:37;101888.09;;;11.62;48.23
79150;BME280;68563;45.644;13.782;2024-02-21T04:17:04;101887.22;;;11.58;47.99
79150;BME280;68563;45.644;13.782;2024-02-21T04:19:30;101888.97;;;11.61;48.13
79150;BME280;68563;45.644;13.782;2024-02-21T04:21:56;101896.72;;;11.55;47.84
79150;BME280;68563;45.644;13.782;2024-02-21T04:24:21;101885.50;;;11.54;47.95
79150;BME280;68563;45.644;13.782;2024-02-21T04:26:47;101889.81;;;11.55;48.23
79150;BME280;68563;45.644;13.782;2024-02-21T04:29:12;101892.41;;;11.58;47.88
79150;BME280;68563;45.644;13.782;2024-02-21T04:31:37;101893.28;;;11.63;47.78
79150;BME280;68563;45.644;13.782;2024-02-21T04:34:03;101884.66;;;11.63;47.54
79150;BME280;68563;45.644;13.782;2024-02-21T04:36:28;101886.38;;;11.58;47.44
79150;BME280;68563;45.644;13.782;2024-02-21T04:38:53;101893.28;;;11.57;47.29
79150;BME280;68563;45.644;13.782;2024-02-21T04:41:19;101880.28;;;11.48;47.50
79150;BME280;68563;45.644;13.782;2024-02-21T04:43:46;101882.03;;;11.55;47.74
79150;BME280;68563;45.644;13.782;2024-02-21T04:46:12;101886.34;;;11.53;47.39
79150;BME280;68563;45.644;13.782;2024-02-21T04:48:37;101884.59;;;11.46;47.53
79150;BME280;68563;45.644;13.782;2024-02-21T04:51:03;101888.94;;;11.50;47.35
79150;BME280;68563;45.644;13.782;2024-02-21T04:53:28;101873.34;;;11.45;47.21
79150;BME280;68563;45.644;13.782;2024-02-21T04:55:53;101882.88;;;11.45;47.11
79150;BME280;68563;45.644;13.782;2024-02-21T04:58:19;101891.47;;;11.41;47.91
79150;BME280;68563;45.644;13.782;2024-02-21T05:00:44;101885.44;;;11.39;47.54
79150;BME280;68563;45.644;13.782;2024-02-21T05:03:10;101888.88;;;11.41;47.80
79150;BME280;68563;45.644;13.782;2024-02-21T05:05:36;101892.38;;;11.40;48.12
79150;BME280;68563;45.644;13.782;2024-02-21T05:08:01;101894.94;;;11.35;48.29
79150;BME280;68563;45.644;13.782;2024-02-21T05:10:27;101896.66;;;11.34;48.36
79150;BME280;68563;45.644;13.782;2024-02-21T05:12:52;101886.31;;;11.38;48.30
79150;BME280;68563;45.644;13.782;2024-02-21T05:15:18;101882.81;;;11.29;48.15
79150;BME280;68563;45.644;13.782;2024-02-21T05:17:43;101900.97;;;11.37;48.39
79150;BME280;68563;45.644;13.782;2024-02-21T05:20:09;101895.81;;;11.32;48.27
79150;BME280;68563;45.644;13.782;2024-02-21T05:22:35;101899.25;;;11.34;48.85
79150;BME280;68563;45.644;13.782;2024-02-21T05:25:00;101902.72;;;11.33;48.36
79150;BME280;68563;45.644;13.782;2024-02-21T05:27:26;101904.47;;;11.36;48.68
79150;BME280;68563;45.644;13.782;2024-02-21T05:29:53;101902.72;;;11.33;48.91
79150;BME280;68563;45.644;13.782;2024-02-21T05:32:18;101905.31;;;11.29;48.73
79150;BME280;68563;45.644;13.782;2024-02-21T05:34:44;101910.50;;;11.33;49.00
79150;BME280;68563;45.644;13.782;2024-02-21T05:37:09;101907.03;;;11.31;48.75
79150;BME280;68563;45.644;13.782;2024-02-21T05:39:35;101905.31;;;11.37;49.14
79150;BME280;68563;45.644;13.782;2024-02-21T05:42:00;101895.81;;;11.32;48.98
79150;BME280;68563;45.644;13.782;2024-02-21T05:44:25;101901.84;;;11.34;49.08
79150;BME280;68563;45.644;13.782;2024-02-21T05:46:52;101898.41;;;11.34;48.60
79150;BME280;68563;45.644;13.782;2024-02-21T05:49:17;101893.22;;;11.34;48.89
79150;BME280;68563;45.644;13.782;2024-02-21T05:51:42;101904.47;;;11.38;48.86
79150;BME280;68563;45.644;13.782;2024-02-21T05:54:08;101900.13;;;11.29;48.87
79150;BME280;68563;45.644;13.782;2024-02-21T05:56:33;101897.53;;;11.29;49.47
79150;BME280;68563;45.644;13.782;2024-02-21T05:58:59;101909.59;;;11.28;49.60
79150;BME280;68563;45.644;13.782;2024-02-21T06:01:24;101909.59;;;11.28;49.26
79150;BME280;68563;45.644;13.782;2024-02-21T06:03:50;101905.28;;;11.27;49.28
79150;BME280;68563;45.644;13.782;2024-02-21T06:06:15;101913.06;;;11.30;49.40
79150;BME280;68563;45.644;13.782;2024-02-21T06:08:41;101904.41;;;11.25;49.50
79150;BME280;68563;45.644;13.782;2024-02-21T06:11:06;101903.53;;;11.23;49.41
79150;BME280;68563;45.644;13.782;2024-02-21T06:13:32;101902.69;;;11.27;49.70
79150;BME280;68563;45.644;13.782;2024-02-21T06:15:57;101907.00;;;11.25;49.57
79150;BME280;68563;45.644;13.782;2024-02-21T06:18:23;101910.47;;;11.29;49.70
79150;BME280;68563;45.644;13.782;2024-02-21T06:20:48;101913.06;;;11.30;48.92
79150;BME280;68563;45.644;13.782;2024-02-21T06:23:16;101916.53;;;11.28;48.97
79150;BME280;68563;45.644;13.782;2024-02-21T06:25:42;101919.13;;;11.29;49.04
79150;BME280;68563;45.644;13.782;2024-02-21T06:28:07;101911.34;;;11.26;49.07
79150;BME280;68563;45.644;13.782;2024-02-21T06:30:33;101915.66;;;11.26;48.96
79150;BME280;68563;45.644;13.782;2024-02-21T06:32:58;101922.59;;;11.30;48.93
79150;BME280;68563;45.644;13.782;2024-02-21T06:35:24;101920.84;;;11.27;48.78
79150;BME280;68563;45.644;13.782;2024-02-21T06:37:51;101930.38;;;11.34;48.92
79150;BME280;68563;45.644;13.782;2024-02-21T06:40:17;101933.00;;;11.38;48.92
79150;BME280;68563;45.644;13.782;2024-02-21T06:42:43;101939.03;;;11.37;48.65
79150;BME280;68563;45.644;13.782;2024-02-21T06:45:08;101939.03;;;11.37;49.03
79150;BME280;68563;45.644;13.782;2024-02-21T06:47:34;101937.31;;;11.39;48.71
79150;BME280;68563;45.644;13.782;2024-02-21T06:49:59;101945.97;;;11.44;48.67
79150;BME280;68563;45.644;13.782;2024-02-21T06:52:24;101945.13;;;11.43;48.73
79150;BME280;68563;45.644;13.782;2024-02-21T06:54:50;101944.25;;;11.44;48.82
79150;BME280;68563;45.644;13.782;2024-02-21T06:57:16;101946.03;;;11.53;48.78
79150;BME280;68563;45.644;13.782;2024-02-21T06:59:41;101946.91;;;11.57;48.56
79150;BME280;68563;45.644;13.782;2024-02-21T07:02:07;101940.88;;;11.64;48.75
79150;BME280;68563;45.644;13.782;2024-02-21T07:04:33;101938.28;;;11.65;48.91
79150;BME280;68563;45.644;13.782;2024-02-21T07:06:58;101938.28;;;11.64;48.75
79150;BME280;68563;45.644;13.782;2024-02-21T07:09:23;101940.88;;;11.67;48.72
79150;BME280;68563;45.644;13.782;2024-02-21T07:11:49;101941.75;;;11.71;48.67
79150;BME280;68563;45.644;13.782;2024-02-21T07:14:14;101943.47;;;11.73;48.58
79150;BME280;68563;45.644;13.782;2024-02-21T07:16:40;101935.72;;;11.81;48.12
79150;BME280;68563;45.644;13.782;2024-02-21T07:19:06;101940.94;;;11.87;48.12
79150;BME280;68563;45.644;13.782;2024-02-21T07:21:32;101937.53;;;11.99;47.90
79150;BME280;68563;45.644;13.782;2024-02-21T07:23:57;101945.34;;;12.27;47.17
79150;BME280;68563;45.644;13.782;2024-02-21T07:26:22;101934.94;;;12.32;47.06
79150;BME280;68563;45.644;13.782;2024-02-21T07:28:48;101940.16;;;12.38;46.96
79150;BME280;68563;45.644;13.782;2024-02-21T07:31:13;101941.03;;;12.37;46.68
79150;BME280;68563;45.644;13.782;2024-02-21T07:33:38;101938.44;;;12.32;47.25
79150;BME280;68563;45.644;13.782;2024-02-21T07:36:09;101941.88;;;12.26;47.29
79150;BME280;68563;45.644;13.782;2024-02-21T07:38:35;101943.59;;;12.34;47.21
79150;BME280;68563;45.644;13.782;2024-02-21T07:41:00;101944.47;;;12.33;47.47
79150;BME280;68563;45.644;13.782;2024-02-21T07:43:26;101931.50;;;12.29;47.65
79150;BME280;68563;45.644;13.782;2024-02-21T07:45:52;101934.97;;;12.28;47.39
79150;BME280;68563;45.644;13.782;2024-02-21T07:48:18;101942.75;;;12.28;47.20
79150;BME280;68563;45.644;13.782;2024-02-21T07:50:44;101941.00;;;12.29;47.07
79150;BME280;68563;45.644;13.782;2024-02-21T07:53:09;101946.22;;;12.31;46.78
79150;BME280;68563;45.644;13.782;2024-02-21T07:55:35;101941.00;;;12.24;47.18
79150;BME280;68563;45.644;13.782;2024-02-21T07:58:00;101946.22;;;12.38;47.28
79150;BME280;68563;45.644;13.782;2024-02-21T08:00:25;101948.81;;;12.43;47.33
79150;BME280;68563;45.644;13.782;2024-02-21T08:02:51;101950.53;;;12.47;47.39
79150;BME280;68563;45.644;13.782;2024-02-21T08:05:16;101963.53;;;12.50;47.37
79150;BME280;68563;45.644;13.782;2024-02-21T08:07:42;101954.88;;;12.51;47.43
79150;BME280;68563;45.644;13.782;2024-02-21T08:10:07;101965.28;;;12.51;47.26
79150;BME280;68563;45.644;13.782;2024-02-21T08:12:33;101962.69;;;12.51;47.34
79150;BME280;68563;45.644;13.782;2024-02-21T08:15:00;101954.00;;;12.49;47.39
79150;BME280;68563;45.644;13.782;2024-02-21T08:17:25;101945.34;;;12.45;47.62
79150;BME280;68563;45.644;13.782;2024-02-21T08:19:50;101960.06;;;12.48;47.60
79150;BME280;68563;45.644;13.782;2024-02-21T08:22:16;101961.78;;;12.52;47.81
79150;BME280;68563;45.644;13.782;2024-02-21T08:24:41;101962.66;;;12.56;47.83
79150;BME280;68563;45.644;13.782;2024-02-21T08:27:07;101955.75;;;12.56;47.57
79150;BME280;68563;45.644;13.782;2024-02-21T08:29:32;101960.06;;;12.59;48.01
79150;BME280;68563;45.644;13.782;2024-02-21T08:31:58;101963.53;;;12.63;47.67
79150;BME280;68563;45.644;13.782;2024-02-21T08:34:23;101961.81;;;12.65;47.43
79150;BME280;68563;45.644;13.782;2024-02-21T08:36:49;101966.13;;;12.72;47.51
79150;BME280;68563;45.644;13.782;2024-02-21T08:39:15;101963.53;;;12.78;47.92
79150;BME280;68563;45.644;13.782;2024-02-21T08:41:42;101969.56;;;12.89;48.08
79150;BME280;68563;45.644;13.782;2024-02-21T08:44:08;101966.09;;;12.97;47.91
79150;BME280;68563;45.644;13.782;2024-02-21T08:46:33;101956.56;;;12.99;48.02
79150;BME280;68563;45.644;13.782;2024-02-21T08:48:59;101970.41;;;13.04;48.12
79150;BME280;68563;45.644;13.782;2024-02-21T08:51:24;101957.41;;;13.07;48.23
79150;BME280;68563;45.644;13.782;2024-02-21T08:53:50;101953.91;;;13.13;48.48
79150;BME280;68563;45.644;13.782;2024-02-21T08:56:15;101959.09;;;13.16;48.61
79150;BME280;68563;45.644;13.782;2024-02-21T08:58:41;101961.72;;;13.09;48.65
79150;BME280;68563;45.644;13.782;2024-02-21T09:01:07;101957.38;;;13.08;48.83
79150;BME280;68563;45.644;13.782;2024-02-21T09:03:37;101960.00;;;13.07;49.49
79150;BME280;68563;45.644;13.782;2024-02-21T09:06:04;101959.13;;;13.06;49.87
79150;BME280;68563;45.644;13.782;2024-02-21T09:08:29;101955.66;;;13.06;50.15
79150;BME280;68563;45.644;13.782;2024-02-21T09:10:55;101952.19;;;13.04;50.00
79150;BME280;68563;45.644;13.782;2024-02-21T09:13:20;101953.06;;;13.07;50.52
79150;BME280;68563;45.644;13.782;2024-02-21T09:15:47;101947.84;;;13.04;50.33
79150;BME280;68563;45.644;13.782;2024-02-21T09:18:13;101947.00;;;13.02;50.48
79150;BME280;68563;45.644;13.782;2024-02-21T09:20:38;101953.06;;;13.03;50.17
79150;BME280;68563;45.644;13.782;2024-02-21T09:23:04;101953.09;;;13.00;50.07
79150;BME280;68563;45.644;13.782;2024-02-21T09:25:29;101953.94;;;12.99;49.91
79150;BME280;68563;45.644;13.782;2024-02-21T09:27:55;101948.75;;;12.99;49.73
79150;BME280;68563;45.644;13.782;2024-02-21T09:30:21;101959.16;;;12.99;49.93
79150;BME280;68563;45.644;13.782;2024-02-21T09:32:47;101953.06;;;12.98;49.79
79150;BME280;68563;45.644;13.782;2024-02-21T09:35:12;101953.09;;;12.97;49.56
79150;BME280;68563;45.644;13.782;2024-02-21T09:37:38;101948.72;;;12.97;49.59
79150;BME280;68563;45.644;13.782;2024-02-21T09:40:04;101952.22;;;12.96;49.79
79150;BME280;68563;45.644;13.782;2024-02-21T09:42:37;101956.56;;;12.99;49.88
79150;BME280;68563;45.644;13.782;2024-02-21T09:45:07;101956.56;;;12.99;50.03
79150;BME280;68563;45.644;13.782;2024-02-21T09:50:17;101950.47;;;12.97;48.81
79150;BME280;68563;45.644;13.782;2024-02-21T09:52:47;101960.00;;;13.01;48.42
79150;BME280;68563;45.644;13.782;2024-02-21T09:55:14;101953.94;;;13.02;47.83
79150;BME280;68563;45.644;13.782;2024-02-21T09:57:40;101961.72;;;13.02;46.30
79150;BME280;68563;45.644;13.782;2024-02-21T10:00:06;101961.72;;;13.02;45.85
79150;BME280;68563;45.644;13.782;2024-02-21T10:02:35;101971.25;;;13.04;45.68
79150;BME280;68563;45.644;13.782;2024-02-21T10:05:02;101978.19;;;13.05;45.53
79150;BME280;68563;45.644;13.782;2024-02-21T10:07:29;101976.47;;;13.06;45.62
79150;BME280;68563;45.644;13.782;2024-02-21T10:10:02;101969.53;;;13.06;45.77
79150;BME280;68563;45.644;13.782;2024-02-21T10:12:28;101972.13;;;13.06;45.39
79150;BME280;68563;45.644;13.782;2024-02-21T10:15:03;101973.88;;;13.06;45.58
79150;BME280;68563;45.644;13.782;2024-02-21T10:17:30;101969.53;;;13.06;45.34
79150;BME280;68563;45.644;13.782;2024-02-21T10:20:02;101979.06;;;13.09;45.95
79150;BME280;68563;45.644;13.782;2024-02-21T10:22:31;101979.06;;;13.07;46.23
79150;BME280;68563;45.644;13.782;2024-02-21T10:25:10;101981.66;;;13.09;47.67
79150;BME280;68563;45.644;13.782;2024-02-21T10:27:36;101981.66;;;13.07;47.88
79150;BME280;68563;45.644;13.782;2024-02-21T10:30:03;101975.59;;;13.07;47.50
79150;BME280;68563;45.644;13.782;2024-02-21T10:32:29;101982.53;;;13.06;47.35
79150;BME280;68563;45.644;13.782;2024-02-21T10:35:05;101977.31;;;13.06;47.46
79150;BME280;68563;45.644;13.782;2024-02-21T10:37:31;101974.72;;;13.08;47.54
79150;BME280;68563;45.644;13.782;2024-02-21T10:40:00;101964.31;;;13.08;47.35
79150;BME280;68563;45.644;13.782;2024-02-21T10:42:29;101950.44;;;13.04;46.64
79150;BME280;68563;45.644;13.782;2024-02-21T10:45:01;101954.81;;;13.07;46.47
79150;BME280;68563;45.644;13.782;2024-02-21T10:47:29;101949.59;;;13.08;45.83
79150;BME280;68563;45.644;13.782;2024-02-21T10:50:04;101945.28;;;13.06;46.33
79150;BME280;68563;45.644;13.782;2024-02-21T10:53:07;101943.53;;;13.06;45.05
79150;BME280;68563;45.644;13.782;2024-02-21T10:55:41;101935.72;;;13.05;44.89
79150;BME280;68563;45.644;13.782;2024-02-21T10:58:10;101934.00;;;13.07;45.36
79150;BME280;68563;45.644;13.782;2024-02-21T11:00:37;101930.50;;;13.08;45.37
79150;BME280;68563;45.644;13.782;2024-02-21T11:03:03;101923.56;;;13.10;45.32
79150;BME280;68563;45.644;13.782;2024-02-21T11:05:29;101913.19;;;13.07;45.86
79150;BME280;68563;45.644;13.782;2024-02-21T11:07:55;101911.41;;;13.14;44.63
79150;BME280;68563;45.644;13.782;2024-02-21T11:10:26;101906.19;;;13.15;44.57
79150;BME280;68563;45.644;13.782;2024-02-21T11:13:07;101905.34;;;13.15;44.13
79150;BME280;68563;45.644;13.782;2024-02-21T11:15:33;101894.09;;;13.13;44.46
79150;BME280;68563;45.644;13.782;2024-02-21T11:17:59;101888.00;;;13.15;44.37
79150;BME280;68563;45.644;13.782;2024-02-21T11:20:37;101882.81;;;13.17;44.91
79150;BME280;68563;45.644;13.782;2024-02-21T11:23:03;101883.66;;;13.17;45.90
79150;BME280;68563;45.644;13.782;2024-02-21T11:25:29;101876.72;;;13.19;45.50
79150;BME280;68563;45.644;13.782;2024-02-21T11:28:05;101867.22;;;13.17;45.26
79150;BME280;68563;45.644;13.782;2024-02-21T11:30:36;101868.94;;;13.18;45.38
79150;BME280;68563;45.644;13.782;2024-02-21T11:33:05;101870.63;;;13.19;44.74
79150;BME280;68563;45.644;13.782;2024-02-21T11:35:34;101860.25;;;13.17;44.92
79150;BME280;68563;45.644;13.782;2024-02-21T11:38:13;101845.53;;;13.13;44.48
79150;BME280;68563;45.644;13.782;2024-02-21T11:40:44;101842.03;;;13.17;44.45
79150;BME280;68563;45.644;13.782;2024-02-21T11:43:10;101838.56;;;13.18;44.54
79150;BME280;68563;45.644;13.782;2024-02-21T11:45:35;101831.66;;;13.17;44.60
79150;BME280;68563;45.644;13.782;2024-02-21T11:48:01;101832.50;;;13.21;44.96
79150;BME280;68563;45.644;13.782;2024-02-21T11:50:29;101828.16;;;13.23;44.64
79150;BME280;68563;45.644;13.782;2024-02-21T11:52:56;101822.97;;;13.21;44.83
79150;BME280;68563;45.644;13.782;2024-02-21T11:55:24;101813.38;;;13.25;44.53
79150;BME280;68563;45.644;13.782;2024-02-21T11:57:49;101813.41;;;13.22;44.55
79150;BME280;68563;45.644;13.782;2024-02-21T12:00:16;101807.38;;;13.21;45.07
79150;BME280;68563;45.644;13.782;2024-02-21T12:02:45;101807.38;;;13.21;45.10
79150;BME280;68563;45.644;13.782;2024-02-21T12:05:11;101816.00;;;13.23;45.23
79150;BME280;68563;45.644;13.782;2024-02-21T12:07:37;101800.44;;;13.20;45.00
79150;BME280;68563;45.644;13.782;2024-02-21T12:10:09;101809.06;;;13.25;45.18
79150;BME280;68563;45.644;13.782;2024-02-21T12:12:38;101813.41;;;13.23;45.02
79150;BME280;68563;45.644;13.782;2024-02-21T12:15:05;101811.66;;;13.27;45.43
79150;BME280;68563;45.644;13.782;2024-02-21T12:17:33;101808.19;;;13.27;45.21
79150;BME280;68563;45.644;13.782;2024-02-21T12:19:59;101808.19;;;13.23;45.17
79150;BME280;68563;45.644;13.782;2024-02-21T12:22:25;101806.50;;;13.16;44.67
79150;BME280;68563;45.644;13.782;2024-02-21T12:24:50;101803.91;;;13.16;44.63
79150;BME280;68563;45.644;13.782;2024-02-21T12:27:16;101799.59;;;13.17;45.00
79150;BME280;68563;45.644;13.782;2024-02-21T12:29:41;101787.47;;;13.14;45.34
79150;BME280;68563;45.644;13.782;2024-02-21T12:32:07;101793.53;;;13.13;45.46
79150;BME280;68563;45.644;13.782;2024-02-21T12:34:32;101787.47;;;13.06;45.88
79150;BME280;68563;45.644;13.782;2024-02-21T12:36:58;101804.78;;;13.17;45.70
79150;BME280;68563;45.644;13.782;2024-02-21T12:39:24;101799.59;;;13.12;45.79
79150;BME280;68563;45.644;13.782;2024-02-21T12:41:49;101809.09;;;13.16;45.71